Thursday, February 22, 2018, 4:48 PM CST
Back to Local

KIKK, Kankakee, Greater Kankakee Airport

Location: Kankakee, IL, United States Lat: 41.071
Local Time: 4:48 PM CST (22:48 GMT) Lon: -87.846
Time Zone: US/Central Elev: 629 ft

Show me the last for .
Show Coded

Time T Td Feel RH Dir Speed Gust Alt SLP Vis Weather Sky Remarks
2018-02-22 16:35 43 38 34 81 110° 16 24 30.34 - 10 OVC016 None
2018-02-22 16:15 43 38 35 79 110° 16 20 30.36 - 10 OVC018 None
2018-02-22 15:55 44 38 36 78 90° 13 18 30.37 - 10 OVC018 None
2018-02-22 15:35 44 38 35 79 90° 16 20 30.38 - 10 OVC018 None
2018-02-22 15:15 44 38 37 79 100° 14 - 30.39 - 10 OVC018 None
2018-02-22 14:55 44 38 35 78 90° 13 20 30.40 - 10 OVC018 None
2018-02-22 14:35 44 37 36 77 90° 17 - 30.39 - 10 OVC018 None
2018-02-22 14:15 44 37 35 78 100° 14 20 30.40 - 10 OVC018 None
2018-02-22 13:55 44 37 35 77 90° 16 22 30.41 - 10 OVC018 None
2018-02-22 13:35 44 37 35 78 90° 16 20 30.42 - 10 OVC018 None
2018-02-22 13:15 44 37 35 77 100° 17 22 30.43 - 10 OVC018 None
2018-02-22 12:55 44 37 35 76 110° 17 24 30.42 - 10 OVC020 None
2018-02-22 12:35 44 37 35 75 100° 16 23 30.44 - 10 OVC022 None
2018-02-22 12:15 44 37 35 75 110° 16 24 30.46 - 10 BKN022 OVC030 None
2018-02-22 11:55 44 37 35 77 90° 20 23 30.46 - 10 SCT020 SCT030 OVC038 6-hr Min Temp (12pm): 32.2°F
6-hr Max Temp (12pm): 43.7°F
2018-02-22 11:35 42 37 35 81 80° 12 - 30.47 - 10 OVC036 None
2018-02-22 11:15 40 36 33 83 70° 13 - 30.48 - 10 OVC036 None
2018-02-22 10:55 39 35 31 84 70° 15 - 30.48 - 10 SCT009 OVC036 None
2018-02-22 10:35 37 34 28 87 80° 16 - 30.48 - 10 SCT009 OVC036 None
2018-02-22 10:15 36 33 25 87 70° 17 22 30.50 - 10 SCT009 OVC038 None
2018-02-22 09:55 35 32 26 89 70° 14 - 30.51 - 10 SCT009 SCT016 OVC040 None
2018-02-22 09:35 35 32 26 90 80° 13 - 30.51 - 7 RA SCT011 OVC042 None
2018-02-22 09:15 34 31 25 89 60° 13 - 30.53 - 10 -RA SCT012 OVC044 None
2018-02-22 08:55 34 31 25 89 60° 13 - 30.53 - 10 SCT012 OVC044 None
2018-02-22 08:35 33 31 25 89 70° 12 - 30.52 - 10 SCT012 OVC044 None
2018-02-22 08:15 33 31 24 92 60° 10 - 30.52 - 10 SCT012 SCT016 OVC044 None
2018-02-22 07:55 32 30 24 92 50° 10 - 30.52 - 10 -DZ SCT012 BKN050 OVC075 None
2018-02-22 07:35 32 30 22 90 50° 14 - 30.50 - 10 -RA BKN060 BKN075 OVC085 None
2018-02-22 07:15 32 29 23 88 50° 13 - 30.50 - 10 -RA BKN060 OVC075 None
2018-02-22 06:55 32 29 23 88 50° 13 - 30.51 - 10 SCT012 SCT060 OVC080 None
2018-02-22 06:35 32 29 23 88 40° 12 - 30.51 - 10 SCT012 SCT080 OVC090 None
2018-02-22 06:15 32 29 24 88 50° 10 - 30.50 - 10 SCT012 OVC090 None
2018-02-22 05:55 32 29 24 88 40° 10 - 30.50 - 10 SCT014 BKN090 OVC110 6-hr Min Temp (6am): 30.7°F
6-hr Max Temp (6am): 32.0°F
2018-02-22 05:35 32 29 23 87 50° 12 - 30.50 - 10 BKN014 OVC080 None
2018-02-22 05:15 32 28 23 86 40° 12 - 30.50 - 10 BKN014 OVC080 None
2018-02-22 04:55 32 28 24 86 50° 10 - 30.49 - 10 BKN014 OVC090 None
2018-02-22 04:35 32 28 22 86 50° 14 - 30.48 - 10 SCT016 BKN080 OVC090 None
2018-02-22 04:15 32 28 22 86 50° 14 - 30.50 - 10 SCT016 BKN070 OVC080 None
2018-02-22 03:55 32 28 20 85 50° 16 21 30.48 - 10 SCT016 BKN070 OVC085 None
2018-02-22 03:35 32 28 20 85 50° 16 21 30.48 - 10 SCT016 BKN070 OVC085 None
2018-02-22 03:15 32 28 20 85 40° 14 21 30.49 - 10 BKN016 OVC070 None
2018-02-22 02:55 32 28 20 85 40° 16 21 30.50 - 10 SCT016 OVC070 None
2018-02-22 02:35 32 28 21 85 40° 15 - 30.50 - 10 OVC070 None
2018-02-22 02:15 32 28 19 84 50° 13 21 30.51 - 10 OVC070 None
2018-02-22 01:55 32 28 21 85 60° 15 - 30.51 - 10 SCT019 OVC070 None
2018-02-22 01:35 31 28 22 85 50° 13 - 30.53 - 10 SCT019 OVC070 None
2018-02-22 01:15 31 28 21 85 40° 14 - 30.53 - 10 OVC070 None
2018-02-22 00:55 31 27 21 85 50° 14 - 30.52 - 10 OVC070 None
2018-02-22 00:35 31 27 21 83 50° 14 - 30.53 - 10 SCT070 None
2018-02-22 00:15 31 26 18 83 50° 14 21 30.53 - 10 SCT070 None
2018-02-21 23:55 31 26 19 83 50° 15 18 30.53 - 10 BKN070 6-hr Min Temp (12am): 30.2°F
6-hr Max Temp (12am): 30.9°F
24-hr Min Temp (12am): 30.2°F
24-hr Max Temp (12am): 33.8°F
2018-02-21 23:35 31 26 18 81 40° 15 22 30.54 - 10 SCT070 None
2018-02-21 23:15 31 26 18 81 40° 14 21 30.56 - 10 CLR None
2018-02-21 22:55 31 26 19 81 40° 12 18 30.57 - 10 CLR None
2018-02-21 22:35 31 26 22 81 50° 10 - 30.59 - 10 CLR None
2018-02-21 22:15 31 25 18 79 50° 16 21 30.59 - 10 CLR None
2018-02-21 21:55 31 26 20 81 60° 14 - 30.59 - 10 CLR None
2018-02-21 21:35 30 25 20 81 60° 13 - 30.60 - 10 CLR None
2018-02-21 21:15 30 25 18 81 50° 13 18 30.60 - 10 CLR None
2018-02-21 20:55 30 25 20 80 50° 13 - 30.62 - 10 CLR None
2018-02-21 20:35 30 26 18 82 50° 12 17 30.62 - 10 CLR None
2018-02-21 20:15 30 25 20 80 40° 14 - 30.61 - 10 CLR None
2018-02-21 19:55 30 25 18 80 60° 14 17 30.61 - 10 SCT015 None
2018-02-21 19:35 30 25 19 81 50° 12 16 30.61 - 10 SCT015 None
2018-02-21 19:15 30 25 18 81 50° 13 18 30.61 - 10 SCT015 None
2018-02-21 18:55 30 25 20 81 50° 13 - 30.61 - 10 SCT015 None
2018-02-21 18:35 30 25 19 81 40° 16 - 30.60 - 10 SCT015 None
2018-02-21 18:15 30 25 20 80 40° 14 - 30.59 - 10 CLR None
2018-02-21 17:55 30 25 19 80 40° 16 - 30.59 - 10 SCT015 6-hr Min Temp (6pm): 30.2°F
6-hr Max Temp (6pm): 33.3°F
2018-02-21 17:35 31 25 20 80 40° 15 - 30.58 - 10 SCT015 None
2018-02-21 17:15 31 26 20 81 40° 14 - 30.58 - 10 BKN015 None
2018-02-21 16:55 31 25 20 79 40° 15 - 30.58 - 10 SCT017 None

Support USWX by starting your Amazon purchase here.